createdAt,value
2022-12-02T00:01:05.504Z,1.9
2022-12-02T00:02:15.616Z,1.8
2022-12-02T00:03:25.728Z,1.8
2022-12-02T00:04:35.857Z,1.8
2022-12-02T00:05:45.961Z,1.8
2022-12-02T00:06:56.083Z,1.8
2022-12-02T00:08:05.218Z,1.8
2022-12-02T00:09:15.343Z,1.9
2022-12-02T00:10:25.466Z,1.9
2022-12-02T00:11:35.572Z,1.9
2022-12-02T00:12:45.697Z,1.9
2022-12-02T00:13:55.821Z,1.9
2022-12-02T00:15:05.923Z,1.9
2022-12-02T00:16:16.055Z,2
2022-12-02T00:17:26.167Z,1.9
2022-12-02T00:18:36.291Z,2
2022-12-02T00:19:46.411Z,2
2022-12-02T00:20:56.534Z,2
2022-12-02T00:22:06.639Z,1.9
2022-12-02T00:23:15.780Z,1.9
2022-12-02T00:24:25.902Z,1.9
2022-12-02T00:25:36.023Z,1.9
2022-12-02T00:26:46.127Z,1.9
2022-12-02T00:27:56.248Z,2
2022-12-02T00:29:06.373Z,2
2022-12-02T00:30:16.481Z,2
2022-12-02T00:31:26.601Z,2
2022-12-02T00:32:36.718Z,2
2022-12-02T00:33:46.839Z,2
2022-12-02T00:34:56.968Z,2
2022-12-02T00:36:07.076Z,2
2022-12-02T00:37:17.197Z,2
2022-12-02T00:38:26.338Z,2
2022-12-02T00:39:36.450Z,2
2022-12-02T00:40:46.574Z,2
2022-12-02T00:41:56.681Z,2
2022-12-02T00:44:16.919Z,1.9
2022-12-02T00:45:27.039Z,1.9
2022-12-02T00:46:37.170Z,1.9
2022-12-02T00:47:47.275Z,2
2022-12-02T00:48:57.394Z,2
2022-12-02T00:50:07.000Z,2
2022-12-02T00:51:17.642Z,2
2022-12-02T00:52:27.000Z,2
2022-12-02T00:53:36.886Z,2
2022-12-02T00:54:47.005Z,2
2022-12-02T00:55:57.133Z,2
2022-12-02T00:57:07.254Z,2
2022-12-02T00:58:17.361Z,2
2022-12-02T00:59:26.501Z,2
2022-12-02T01:00:35.639Z,1.9
2022-12-02T01:01:45.769Z,1.9
2022-12-02T01:02:56.019Z,2
2022-12-02T01:04:05.159Z,2
2022-12-02T01:05:15.279Z,2
2022-12-02T01:06:25.392Z,2
2022-12-02T01:07:35.520Z,2
2022-12-02T01:08:45.625Z,1.9
2022-12-02T01:09:55.763Z,1.9
2022-12-02T01:11:05.870Z,1.9
2022-12-02T01:12:15.992Z,1.9
2022-12-02T01:13:26.111Z,1.9
2022-12-02T01:14:36.218Z,1.9
2022-12-02T01:15:46.339Z,2
2022-12-02T01:16:56.472Z,2
2022-12-02T01:18:06.583Z,2
2022-12-02T01:19:15.720Z,1.9
2022-12-02T01:20:25.825Z,1.9
2022-12-02T01:21:35.943Z,1.9
2022-12-02T01:22:46.072Z,1.9
2022-12-02T01:23:56.199Z,1.9
2022-12-02T01:25:06.308Z,1.9
2022-12-02T01:26:16.433Z,2
2022-12-02T01:27:26.543Z,2
2022-12-02T01:28:36.668Z,2
2022-12-02T01:29:46.789Z,2
2022-12-02T01:30:56.896Z,1.9
2022-12-02T01:32:07.025Z,2
2022-12-02T01:33:17.127Z,2
2022-12-02T01:34:26.000Z,2
2022-12-02T01:35:36.379Z,1.9
2022-12-02T01:36:46.498Z,1.9
2022-12-02T01:37:56.625Z,1.9
2022-12-02T01:39:06.750Z,1.9
2022-12-02T01:40:16.857Z,1.9
2022-12-02T01:41:26.980Z,1.9
2022-12-02T01:42:37.099Z,1.9
2022-12-02T01:43:47.224Z,1.9
2022-12-02T01:44:57.328Z,1.9
2022-12-02T01:46:07.457Z,1.9
2022-12-02T01:47:17.563Z,1.9
2022-12-02T01:48:27.691Z,1.9
2022-12-02T01:49:37.918Z,1.9
2022-12-02T01:50:48.047Z,1.9
2022-12-02T01:51:58.168Z,1.9
2022-12-02T01:53:08.291Z,1.8
2022-12-02T01:54:18.396Z,1.9
2022-12-02T01:55:28.521Z,1.8
2022-12-02T01:56:38.630Z,1.8
2022-12-02T01:57:48.751Z,1.8
2022-12-02T01:58:58.862Z,1.8
2022-12-02T02:00:08.986Z,1.9
2022-12-02T02:01:19.115Z,1.9
2022-12-02T02:02:29.236Z,1.9
2022-12-02T02:03:39.336Z,1.9
2022-12-02T02:04:48.472Z,1.9
2022-12-02T02:05:58.598Z,1.8
2022-12-02T02:08:18.835Z,1.9
2022-12-02T02:09:28.961Z,1.9
2022-12-02T02:10:39.062Z,1.9
2022-12-02T02:11:49.191Z,1.8
2022-12-02T02:12:59.297Z,1.9
2022-12-02T02:14:09.417Z,1.8
2022-12-02T02:15:19.541Z,1.8
2022-12-02T02:16:29.669Z,1.8
2022-12-02T02:17:39.775Z,1.8
2022-12-02T02:20:00.005Z,1.9
2022-12-02T02:21:10.256Z,1.9
2022-12-02T02:22:20.382Z,1.9
2022-12-02T02:23:30.487Z,1.9
2022-12-02T02:24:40.615Z,1.8
2022-12-02T02:25:50.734Z,1.8
2022-12-02T02:27:00.841Z,1.8
2022-12-02T02:28:10.968Z,1.8
2022-12-02T02:30:31.207Z,1.8
2022-12-02T02:31:41.458Z,1.8
2022-12-02T02:32:51.703Z,1.8
2022-12-02T02:34:01.827Z,1.7
2022-12-02T02:36:22.067Z,1.7
2022-12-02T02:37:32.178Z,1.7
2022-12-02T02:38:42.297Z,1.6
2022-12-02T02:39:52.415Z,1.6
2022-12-02T02:41:02.542Z,1.7
2022-12-02T02:42:12.643Z,1.6
2022-12-02T02:43:22.770Z,1.6
2022-12-02T02:44:32.882Z,1.6
2022-12-02T02:45:42.999Z,1.6
2022-12-02T02:46:52.157Z,1.6
2022-12-02T02:48:02.258Z,1.7
2022-12-02T02:49:12.383Z,1.6
2022-12-02T02:50:22.506Z,1.6
2022-12-02T02:51:32.611Z,1.6
2022-12-02T02:52:42.732Z,1.5
2022-12-02T02:53:52.848Z,1.5
2022-12-02T02:55:02.970Z,1.5
2022-12-02T02:56:13.097Z,1.5
2022-12-02T02:57:22.232Z,1.5
2022-12-02T02:58:31.365Z,1.5
2022-12-02T02:59:41.491Z,1.5
2022-12-02T03:00:51.610Z,1.5
2022-12-02T03:02:01.722Z,1.5
2022-12-02T03:03:11.842Z,1.5
2022-12-02T03:04:21.970Z,1.4
2022-12-02T03:05:32.091Z,1.4
2022-12-02T03:06:42.198Z,1.4
2022-12-02T03:07:52.313Z,1.4
2022-12-02T03:09:02.436Z,1.4
2022-12-02T03:10:12.561Z,1.4
2022-12-02T03:11:22.668Z,1.4
2022-12-02T03:12:32.789Z,1.5
2022-12-02T03:13:41.926Z,1.5
2022-12-02T03:14:52.051Z,1.5
2022-12-02T03:16:02.160Z,1.5
2022-12-02T03:17:12.291Z,1.5
2022-12-02T03:18:22.409Z,1.4
2022-12-02T03:19:32.515Z,1.4
2022-12-02T03:20:42.641Z,1.4
2022-12-02T03:21:52.764Z,1.5
2022-12-02T03:23:02.868Z,1.4
2022-12-02T03:24:12.993Z,1.4
2022-12-02T03:25:23.113Z,1.4
2022-12-02T03:26:33.241Z,1.4
2022-12-02T03:27:43.343Z,1.4
2022-12-02T03:28:52.481Z,1.5
2022-12-02T03:30:02.604Z,1.5
2022-12-02T03:31:12.731Z,1.5
2022-12-02T03:32:22.840Z,1.5
2022-12-02T03:33:32.961Z,1.5
2022-12-02T03:34:43.078Z,1.5
2022-12-02T03:35:53.203Z,1.5
2022-12-02T03:37:03.314Z,1.5
2022-12-02T03:39:23.550Z,1.5
2022-12-02T03:40:33.672Z,1.5
2022-12-02T03:41:43.780Z,1.5
2022-12-02T03:42:53.907Z,1.5
2022-12-02T03:44:03.037Z,1.5
2022-12-02T03:45:13.159Z,1.5
2022-12-02T03:46:23.284Z,1.6
2022-12-02T03:47:33.402Z,1.6
2022-12-02T03:48:43.507Z,1.5
2022-12-02T03:49:53.638Z,1.5
2022-12-02T03:51:03.742Z,1.5
2022-12-02T03:52:13.865Z,1.5
2022-12-02T03:53:23.989Z,1.5
2022-12-02T03:54:34.106Z,1.5
2022-12-02T03:55:44.229Z,1.5
2022-12-02T03:56:54.335Z,1.5
2022-12-02T03:58:04.461Z,1.6
2022-12-02T03:59:13.594Z,1.6
2022-12-02T04:00:23.722Z,1.6
2022-12-02T04:02:43.942Z,1.6
2022-12-02T04:03:54.066Z,1.6
2022-12-02T04:05:04.188Z,1.6
2022-12-02T04:06:14.312Z,1.6
2022-12-02T04:07:24.420Z,1.7
2022-12-02T04:08:34.540Z,1.6
2022-12-02T04:09:44.663Z,1.6
2022-12-02T04:10:54.788Z,1.6
2022-12-02T04:12:04.897Z,1.7
2022-12-02T04:13:15.023Z,1.7
2022-12-02T04:14:24.157Z,1.7
2022-12-02T04:15:34.277Z,1.7
2022-12-02T04:16:44.382Z,1.6
2022-12-02T04:17:54.510Z,1.6
2022-12-02T04:19:04.637Z,1.6
2022-12-02T04:20:14.745Z,1.6
2022-12-02T04:21:24.871Z,1.7
2022-12-02T04:22:34.976Z,1.6
2022-12-02T04:23:45.099Z,1.7
2022-12-02T04:24:55.209Z,1.7
2022-12-02T04:26:05.333Z,1.7
2022-12-02T04:27:15.452Z,1.7
2022-12-02T04:28:25.581Z,1.7
2022-12-02T04:29:34.700Z,1.7
2022-12-02T04:30:44.821Z,1.6
2022-12-02T04:31:54.947Z,1.6
2022-12-02T04:33:05.067Z,1.7
2022-12-02T04:34:15.188Z,1.7
2022-12-02T04:35:25.293Z,1.7
2022-12-02T04:36:35.417Z,1.7
2022-12-02T04:37:45.537Z,1.7
2022-12-02T04:38:55.663Z,1.7
2022-12-02T04:40:05.768Z,1.8
2022-12-02T04:41:15.896Z,1.8
2022-12-02T04:42:26.011Z,1.7
2022-12-02T04:43:36.120Z,1.7
2022-12-02T04:44:45.253Z,1.7
2022-12-02T04:45:55.380Z,1.8
2022-12-02T04:47:05.489Z,1.7
2022-12-02T04:48:15.625Z,1.8
2022-12-02T04:49:25.730Z,1.8
2022-12-02T04:50:35.857Z,1.8
2022-12-02T04:51:45.976Z,1.8
2022-12-02T04:52:56.086Z,1.8
2022-12-02T04:54:06.210Z,1.7
2022-12-02T04:55:16.332Z,1.7
2022-12-02T04:56:26.441Z,1.6
2022-12-02T04:57:36.571Z,1.7
2022-12-02T04:58:46.676Z,1.7
2022-12-02T04:59:56.922Z,1.7
2022-12-02T05:01:07.029Z,1.7
2022-12-02T05:02:17.162Z,1.7
2022-12-02T05:03:27.275Z,1.7
2022-12-02T05:04:37.382Z,1.7
2022-12-02T05:05:47.506Z,1.7
2022-12-02T05:06:57.619Z,1.7
2022-12-02T05:08:07.747Z,1.7
2022-12-02T05:10:27.981Z,1.8
2022-12-02T05:11:38.104Z,1.8
2022-12-02T05:12:48.000Z,1.8
2022-12-02T05:13:58.342Z,1.8
2022-12-02T05:15:07.481Z,1.8
2022-12-02T05:16:17.586Z,1.7
2022-12-02T05:17:27.701Z,1.7
2022-12-02T05:18:37.822Z,1.7
2022-12-02T05:19:47.949Z,1.8
2022-12-02T05:20:58.068Z,1.8
2022-12-02T05:22:08.173Z,1.8
2022-12-02T05:23:18.295Z,1.8
2022-12-02T05:24:28.421Z,1.8
2022-12-02T05:25:38.539Z,1.8
2022-12-02T05:26:48.663Z,1.8
2022-12-02T05:27:58.783Z,1.8
2022-12-02T05:29:08.892Z,1.8
2022-12-02T05:31:29.245Z,1.9
2022-12-02T05:32:39.363Z,1.9
2022-12-02T05:33:49.482Z,1.8
2022-12-02T05:34:59.597Z,1.8
2022-12-02T05:36:09.724Z,1.8
2022-12-02T05:37:19.849Z,1.8
2022-12-02T05:38:29.957Z,1.8
2022-12-02T05:39:40.077Z,1.8
2022-12-02T05:40:50.201Z,1.8
2022-12-02T05:42:00.308Z,1.8
2022-12-02T05:43:10.440Z,1.8
2022-12-02T05:44:20.543Z,1.8
2022-12-02T05:45:29.687Z,1.9
2022-12-02T05:46:39.813Z,1.8
2022-12-02T05:47:49.912Z,1.8
2022-12-02T05:49:00.040Z,1.8
2022-12-02T05:50:10.168Z,1.8
2022-12-02T05:51:20.275Z,1.8
2022-12-02T05:52:30.398Z,1.8
2022-12-02T05:53:40.662Z,1.8
2022-12-02T05:54:49.793Z,1.8
2022-12-02T05:55:59.904Z,1.8
2022-12-02T05:57:09.066Z,1.8
2022-12-02T05:58:18.183Z,1.8
2022-12-02T05:59:28.306Z,1.8
2022-12-02T06:00:38.435Z,1.8
2022-12-02T06:01:48.544Z,1.8
2022-12-02T06:02:58.673Z,1.8
2022-12-02T06:04:08.793Z,1.8
2022-12-02T06:05:18.898Z,1.8
2022-12-02T06:06:29.026Z,1.8
2022-12-02T06:07:39.132Z,1.8
2022-12-02T06:08:49.252Z,1.8
2022-12-02T06:09:59.368Z,1.8
2022-12-02T06:11:09.491Z,1.8
2022-12-02T06:12:19.618Z,1.8
2022-12-02T06:13:28.743Z,1.9
2022-12-02T06:14:38.863Z,1.8
2022-12-02T06:15:48.984Z,1.8
2022-12-02T06:16:59.110Z,1.8
2022-12-02T06:18:09.216Z,1.8
2022-12-02T06:19:19.343Z,1.9
2022-12-02T06:20:29.466Z,1.9
2022-12-02T06:21:39.572Z,1.8
2022-12-02T06:22:49.700Z,1.9
2022-12-02T06:23:59.821Z,1.9
2022-12-02T06:25:09.931Z,1.9
2022-12-02T06:26:20.052Z,1.9
2022-12-02T06:27:30.178Z,1.9
2022-12-02T06:28:39.294Z,1.9
2022-12-02T06:29:49.412Z,1.8
2022-12-02T06:30:59.538Z,1.9
2022-12-02T06:32:09.665Z,1.9
2022-12-02T06:33:19.769Z,1.9
2022-12-02T06:34:29.888Z,1.9
2022-12-02T06:35:40.017Z,1.9
2022-12-02T06:36:50.132Z,1.9
2022-12-02T06:38:00.260Z,1.9
2022-12-02T06:39:10.366Z,1.9
2022-12-02T06:40:20.487Z,1.9
2022-12-02T06:41:29.635Z,1.9
2022-12-02T06:42:39.745Z,1.9
2022-12-02T06:43:49.872Z,1.9
2022-12-02T06:44:59.975Z,1.9
2022-12-02T06:46:10.096Z,1.9
2022-12-02T06:47:20.221Z,1.9
2022-12-02T06:48:30.344Z,1.9
2022-12-02T06:49:40.448Z,1.9
2022-12-02T06:50:50.572Z,1.9
2022-12-02T06:52:00.699Z,1.9
2022-12-02T06:53:10.813Z,1.9
2022-12-02T06:54:20.937Z,1.9
2022-12-02T06:55:31.045Z,1.9
2022-12-02T06:56:40.178Z,2
2022-12-02T06:57:50.307Z,1.9
2022-12-02T06:59:00.412Z,1.9
2022-12-02T07:00:10.538Z,1.9
2022-12-02T07:01:20.662Z,1.9
2022-12-02T07:02:30.773Z,1.9
2022-12-02T07:03:40.902Z,1.9
2022-12-02T07:04:51.015Z,1.9
2022-12-02T07:06:01.123Z,1.9
2022-12-02T07:07:11.242Z,1.9
2022-12-02T07:08:21.370Z,2
2022-12-02T07:09:31.492Z,1.9
2022-12-02T07:10:41.597Z,1.9
2022-12-02T07:11:51.849Z,2
2022-12-02T07:13:00.985Z,2
2022-12-02T07:14:11.226Z,2
2022-12-02T07:15:20.381Z,2
2022-12-02T07:16:29.499Z,2
2022-12-02T07:17:39.625Z,2
2022-12-02T07:18:49.746Z,2
2022-12-02T07:19:59.854Z,2
2022-12-02T07:21:09.982Z,2
2022-12-02T07:22:20.087Z,2
2022-12-02T07:23:30.211Z,2
2022-12-02T07:24:40.334Z,2
2022-12-02T07:25:50.459Z,2
2022-12-02T07:27:00.567Z,2
2022-12-02T07:28:10.692Z,2
2022-12-02T07:29:20.816Z,2
2022-12-02T07:30:30.934Z,2
2022-12-02T07:31:40.057Z,2
2022-12-02T07:32:50.172Z,2
2022-12-02T07:34:00.293Z,2
2022-12-02T07:35:10.422Z,2
2022-12-02T07:36:20.522Z,2
2022-12-02T07:37:30.646Z,2.1
2022-12-02T07:38:40.770Z,2
2022-12-02T07:39:49.920Z,2
2022-12-02T07:40:59.053Z,2.1
2022-12-02T07:42:08.184Z,2.1
2022-12-02T07:43:17.319Z,2.1
2022-12-02T07:44:27.444Z,2.1
2022-12-02T07:45:37.564Z,2.1
2022-12-02T07:46:47.676Z,2.1
2022-12-02T07:47:57.799Z,2
2022-12-02T07:49:07.924Z,2
2022-12-02T07:50:18.033Z,2
2022-12-02T07:51:28.161Z,2.1
2022-12-02T07:52:38.273Z,2.1
2022-12-02T07:53:48.398Z,2.1
2022-12-02T07:54:58.503Z,2.1
2022-12-02T07:56:08.629Z,2.1
2022-12-02T07:58:28.859Z,2.1
2022-12-02T07:59:37.997Z,2.1
2022-12-02T08:00:48.115Z,2.1
2022-12-02T08:01:58.235Z,2.2
2022-12-02T08:03:08.362Z,2.2
2022-12-02T08:05:28.588Z,2.1
2022-12-02T08:06:37.726Z,2.1
2022-12-02T08:07:46.861Z,2.1
2022-12-02T08:08:56.979Z,2.1
2022-12-02T08:10:07.101Z,2.2
2022-12-02T08:11:17.230Z,2.2
2022-12-02T08:12:27.337Z,2.2
2022-12-02T08:13:37.464Z,2.2
2022-12-02T08:14:47.569Z,2.1
2022-12-02T08:15:57.691Z,2.2
2022-12-02T08:17:07.805Z,2.2
2022-12-02T08:18:17.929Z,2.2
2022-12-02T08:19:27.086Z,2.2
2022-12-02T08:20:37.309Z,2.3
2022-12-02T08:21:47.432Z,2.2
2022-12-02T08:22:57.560Z,2.3
2022-12-02T08:24:07.663Z,2.3
2022-12-02T08:25:17.793Z,2.2
2022-12-02T08:26:27.915Z,2.2
2022-12-02T08:27:38.035Z,2.3
2022-12-02T08:28:48.135Z,2.3
2022-12-02T08:29:58.253Z,2.3
2022-12-02T08:31:08.375Z,2.3
2022-12-02T08:33:28.609Z,2.3
2022-12-02T08:34:38.728Z,2.3
2022-12-02T08:35:47.878Z,2.2
2022-12-02T08:36:57.990Z,2.3
2022-12-02T08:38:08.115Z,2.3
2022-12-02T08:39:18.220Z,2.3
2022-12-02T08:40:28.347Z,2.3
2022-12-02T08:41:38.466Z,2.3
2022-12-02T08:42:48.574Z,2.3
2022-12-02T08:43:58.705Z,2.3
2022-12-02T08:45:08.814Z,2.3
2022-12-02T08:46:18.937Z,2.4
2022-12-02T08:47:29.041Z,2.4
2022-12-02T08:48:39.166Z,2.4
2022-12-02T08:49:49.287Z,2.4
2022-12-02T08:50:58.413Z,2.4
2022-12-02T08:52:08.534Z,2.5
2022-12-02T08:53:18.667Z,2.4
2022-12-02T08:54:28.778Z,2.4
2022-12-02T08:55:38.885Z,2.4
2022-12-02T08:56:49.011Z,2.4
2022-12-02T08:57:59.132Z,2.5
2022-12-02T08:59:09.247Z,2.5
2022-12-02T09:01:29.480Z,2.4
2022-12-02T09:02:39.606Z,2.3
2022-12-02T09:03:49.730Z,2.3
2022-12-02T09:04:59.835Z,2.3
2022-12-02T09:06:08.973Z,2.3
2022-12-02T09:07:19.098Z,2.3
2022-12-02T09:08:29.216Z,2.3
2022-12-02T09:09:39.319Z,2.3
2022-12-02T09:10:49.448Z,2.3
2022-12-02T09:11:59.572Z,2.3
2022-12-02T09:13:09.693Z,2.4
2022-12-02T09:14:19.810Z,2.4
2022-12-02T09:15:29.916Z,2.4
2022-12-02T09:16:40.046Z,2.4
2022-12-02T09:17:50.164Z,2.5
2022-12-02T09:19:00.284Z,2.4
2022-12-02T09:20:10.392Z,2.5
2022-12-02T09:21:20.639Z,2.5
2022-12-02T09:22:30.741Z,2.5
2022-12-02T09:23:40.872Z,2.4
2022-12-02T09:24:50.977Z,2.5
2022-12-02T09:26:01.100Z,2.5
2022-12-02T09:27:11.229Z,2.4
2022-12-02T09:28:21.334Z,2.4
2022-12-02T09:29:31.459Z,2.4
2022-12-02T09:30:41.578Z,2.5
2022-12-02T09:31:51.688Z,2.5
2022-12-02T09:33:00.834Z,2.5
2022-12-02T09:34:09.967Z,2.5
2022-12-02T09:35:19.124Z,2.5
2022-12-02T09:36:28.245Z,2.5
2022-12-02T09:37:38.382Z,2.5
2022-12-02T09:38:48.483Z,2.5
2022-12-02T09:39:58.606Z,2.5
2022-12-02T09:41:08.725Z,2.6
2022-12-02T09:43:28.958Z,2.8
2022-12-02T09:44:39.079Z,2.7
2022-12-02T09:45:49.204Z,2.8
2022-12-02T09:46:59.311Z,2.8
2022-12-02T09:48:09.433Z,2.9
2022-12-02T09:49:19.563Z,2.9
2022-12-02T09:50:29.679Z,3
2022-12-02T09:51:39.907Z,2.9
2022-12-02T09:52:50.037Z,3
2022-12-02T09:54:00.146Z,2.9
2022-12-02T09:55:10.274Z,2.9
2022-12-02T09:56:20.382Z,2.9
2022-12-02T09:57:30.503Z,2.9
2022-12-02T09:58:40.620Z,2.8
2022-12-02T09:59:50.738Z,2.9
2022-12-02T10:01:01.005Z,2.9
2022-12-02T10:02:10.132Z,2.9
2022-12-02T10:03:19.293Z,2.9
2022-12-02T10:04:29.517Z,2.9
2022-12-02T10:05:39.635Z,3
2022-12-02T10:06:49.765Z,2.9
2022-12-02T10:07:59.873Z,2.9
2022-12-02T10:09:09.994Z,2.9
2022-12-02T10:11:30.233Z,3
2022-12-02T10:12:40.358Z,3
2022-12-02T10:13:50.464Z,3.1
2022-12-02T10:15:00.586Z,3.1
2022-12-02T10:16:10.704Z,3
2022-12-02T10:17:20.815Z,3.1
2022-12-02T10:18:30.940Z,3.2
2022-12-02T10:19:41.183Z,3.2
2022-12-02T10:20:51.291Z,3.2
2022-12-02T10:22:01.417Z,3.2
2022-12-02T10:23:11.543Z,3.3
2022-12-02T10:24:21.646Z,3.2
2022-12-02T10:25:31.768Z,3.3
2022-12-02T10:26:41.896Z,3.3
2022-12-02T10:27:52.011Z,3.3
2022-12-02T10:30:12.238Z,3.3
2022-12-02T10:31:22.368Z,3.3
2022-12-02T10:32:32.476Z,3.3
2022-12-02T10:33:42.601Z,3.3
2022-12-02T10:34:51.740Z,3.3
2022-12-02T10:36:00.877Z,3.3
2022-12-02T10:37:10.985Z,3.4
2022-12-02T10:38:21.100Z,3.4
2022-12-02T10:39:31.226Z,3.4
2022-12-02T10:40:41.348Z,3.3
2022-12-02T10:41:51.454Z,3.3
2022-12-02T10:43:01.577Z,3.1
2022-12-02T10:44:11.698Z,3.2
2022-12-02T10:45:21.808Z,3.2
2022-12-02T10:46:31.934Z,3.2
2022-12-02T10:47:42.048Z,3.1
2022-12-02T10:48:52.171Z,3.1
2022-12-02T10:50:02.295Z,3.1
2022-12-02T10:51:11.433Z,3.2
2022-12-02T10:52:21.551Z,3.2
2022-12-02T10:53:31.655Z,3.2
2022-12-02T10:54:41.782Z,3.2
2022-12-02T10:55:51.904Z,3.3
2022-12-02T10:57:02.008Z,3.2
2022-12-02T10:58:12.133Z,3.2
2022-12-02T10:59:22.257Z,3.2
2022-12-02T11:00:32.362Z,3.2
2022-12-02T11:01:42.478Z,3.2
2022-12-02T11:02:52.610Z,3.2
2022-12-02T11:04:02.715Z,3.1
2022-12-02T11:05:12.840Z,3.2
2022-12-02T11:06:21.979Z,3.2
2022-12-02T11:07:31.118Z,3.2
2022-12-02T11:08:41.241Z,3.3
2022-12-02T11:09:51.362Z,3.2
2022-12-02T11:11:01.468Z,3.3
2022-12-02T11:12:11.595Z,3.3
2022-12-02T11:13:21.718Z,3.3
2022-12-02T11:14:31.834Z,3.4
2022-12-02T11:15:41.955Z,3.4
2022-12-02T11:16:52.067Z,3.4
2022-12-02T11:18:01.209Z,3.5
2022-12-02T11:19:10.345Z,3.5
2022-12-02T11:20:20.454Z,3.5
2022-12-02T11:21:30.585Z,3.4
2022-12-02T11:22:40.687Z,3.4
2022-12-02T11:23:50.810Z,3.4
2022-12-02T11:25:00.942Z,3.3
2022-12-02T11:26:11.042Z,3.2
2022-12-02T11:28:31.283Z,3.2
2022-12-02T11:29:41.409Z,3.3
2022-12-02T11:30:51.522Z,3.4
2022-12-02T11:32:01.635Z,3.4
2022-12-02T11:33:11.762Z,3.4
2022-12-02T11:34:20.891Z,3.4
2022-12-02T11:35:31.017Z,3.4
2022-12-02T11:36:41.126Z,3.4
2022-12-02T11:37:51.253Z,3.4
2022-12-02T11:39:01.371Z,3.4
2022-12-02T11:40:11.475Z,3.4
2022-12-02T11:41:21.594Z,3.4
2022-12-02T11:42:31.725Z,3.4
2022-12-02T11:43:41.830Z,3.5
2022-12-02T11:44:51.953Z,3.5
2022-12-02T11:46:02.079Z,3.6
2022-12-02T11:47:12.200Z,3.5
2022-12-02T11:48:22.307Z,3.5
2022-12-02T11:49:31.448Z,3.5
2022-12-02T11:50:41.558Z,3.5
2022-12-02T11:51:51.684Z,3.5
2022-12-02T11:53:01.792Z,3.5
2022-12-02T11:54:11.917Z,3.5
2022-12-02T11:55:22.025Z,3.5
2022-12-02T11:56:32.145Z,3.6
2022-12-02T11:57:42.260Z,3.5
2022-12-02T11:58:52.389Z,3.5
2022-12-02T12:00:02.502Z,3.5
2022-12-02T12:01:12.626Z,3.5
2022-12-02T12:02:22.751Z,3.4
2022-12-02T12:03:32.853Z,3.4
2022-12-02T12:04:41.991Z,3.5
2022-12-02T12:05:52.114Z,3.4
2022-12-02T12:08:12.345Z,3.5
2022-12-02T12:09:22.470Z,3.4
2022-12-02T12:10:32.594Z,3.4
2022-12-02T12:11:42.700Z,3.4
2022-12-02T12:12:52.831Z,3.5
2022-12-02T12:14:02.949Z,3.5
2022-12-02T12:15:13.055Z,3.5
2022-12-02T12:16:23.181Z,3.6
2022-12-02T12:17:33.294Z,3.5
2022-12-02T12:18:43.420Z,3.5
2022-12-02T12:19:52.554Z,3.4
2022-12-02T12:21:02.663Z,3.3
2022-12-02T12:22:12.790Z,3.4
2022-12-02T12:24:33.016Z,3.4
2022-12-02T12:25:43.142Z,3.5
2022-12-02T12:26:53.264Z,3.5
2022-12-02T12:28:03.368Z,3.5
2022-12-02T12:29:13.488Z,3.5
2022-12-02T12:30:23.610Z,3.5
2022-12-02T12:31:33.723Z,3.5
2022-12-02T12:32:43.852Z,3.5
2022-12-02T12:33:53.959Z,3.5
2022-12-02T12:35:03.091Z,3.5
2022-12-02T12:36:13.222Z,3.6
2022-12-02T12:37:23.334Z,3.5
2022-12-02T12:38:33.447Z,3.6
2022-12-02T12:39:43.570Z,3.6
2022-12-02T12:42:03.801Z,3.6
2022-12-02T12:43:13.931Z,3.6
2022-12-02T12:45:34.160Z,3.6
2022-12-02T12:46:44.432Z,3.6
2022-12-02T12:47:53.566Z,3.7
2022-12-02T12:49:03.683Z,3.6
2022-12-02T12:50:13.804Z,3.5
2022-12-02T12:51:23.919Z,3.5
2022-12-02T12:52:34.040Z,3.5
2022-12-02T12:53:44.150Z,3.6
2022-12-02T12:54:54.273Z,3.6
2022-12-02T12:56:04.394Z,3.6
2022-12-02T12:57:14.512Z,3.6
2022-12-02T12:58:24.633Z,3.6
2022-12-02T12:59:33.769Z,3.6
2022-12-02T13:00:44.017Z,3.6
2022-12-02T13:01:54.132Z,3.6
2022-12-02T13:03:04.235Z,3.6
2022-12-02T13:04:14.359Z,3.6
2022-12-02T13:05:24.488Z,3.5
2022-12-02T13:06:34.601Z,3.5
2022-12-02T13:07:44.710Z,3.6
2022-12-02T13:08:54.828Z,3.6
2022-12-02T13:10:04.954Z,3.6
2022-12-02T13:11:15.074Z,3.5
2022-12-02T13:12:25.199Z,3.5
2022-12-02T13:13:35.299Z,3.5
2022-12-02T13:14:45.422Z,3.5
2022-12-02T13:15:54.553Z,3.5
2022-12-02T13:17:04.672Z,3.4
2022-12-02T13:18:14.800Z,3.4
2022-12-02T13:19:24.905Z,3.5
2022-12-02T13:20:35.028Z,3.5
2022-12-02T13:21:45.142Z,3.5
2022-12-02T13:22:55.266Z,3.5
2022-12-02T13:24:05.377Z,3.5
2022-12-02T13:25:15.505Z,3.5
2022-12-02T13:26:24.644Z,3.5
2022-12-02T13:27:33.781Z,3.5
2022-12-02T13:28:42.920Z,3.5
2022-12-02T13:29:52.051Z,3.5
2022-12-02T13:31:02.187Z,3.5
2022-12-02T13:32:12.301Z,3.5
2022-12-02T13:33:22.420Z,3.5
2022-12-02T13:34:32.532Z,3.5
2022-12-02T13:35:42.654Z,3.5
2022-12-02T13:36:52.776Z,3.5
2022-12-02T13:38:02.882Z,3.5
2022-12-02T13:39:13.004Z,3.5
2022-12-02T13:40:23.128Z,3.5
2022-12-02T13:41:33.240Z,3.5
2022-12-02T13:43:53.474Z,3.5
2022-12-02T13:45:03.718Z,3.4
2022-12-02T13:46:13.834Z,3.5
2022-12-02T13:47:23.953Z,3.4
2022-12-02T13:48:34.064Z,3.5
2022-12-02T13:49:44.195Z,3.5
2022-12-02T13:50:54.299Z,3.5
2022-12-02T13:52:04.419Z,3.5
2022-12-02T13:53:14.538Z,3.5
2022-12-02T13:54:24.664Z,3.5
2022-12-02T13:55:34.771Z,3.5
2022-12-02T13:56:44.898Z,3.5
2022-12-02T13:57:55.024Z,3.5
2022-12-02T13:59:05.130Z,3.5
2022-12-02T14:00:15.375Z,3.4
2022-12-02T14:01:25.501Z,3.5
2022-12-02T14:02:35.617Z,3.5
2022-12-02T14:03:45.725Z,3.5
2022-12-02T14:04:55.847Z,3.5
2022-12-02T14:06:05.971Z,3.5
2022-12-02T14:07:16.073Z,3.5
2022-12-02T14:08:26.200Z,3.5
2022-12-02T14:09:36.309Z,3.6
2022-12-02T14:10:46.444Z,3.5
2022-12-02T14:11:56.550Z,3.6
2022-12-02T14:13:06.673Z,3.6
2022-12-02T14:14:16.798Z,3.5
2022-12-02T14:15:25.930Z,3.5
2022-12-02T14:16:36.037Z,3.5
2022-12-02T14:17:46.167Z,3.5
2022-12-02T14:18:56.270Z,3.5
2022-12-02T14:20:06.398Z,3.5
2022-12-02T14:21:16.520Z,3.5
2022-12-02T14:22:26.626Z,3.5
2022-12-02T14:23:36.750Z,3.6
2022-12-02T14:24:46.873Z,3.6
2022-12-02T14:25:56.978Z,3.5
2022-12-02T14:27:07.113Z,3.6
2022-12-02T14:28:17.221Z,3.6
2022-12-02T14:30:37.456Z,3.5
2022-12-02T14:31:46.597Z,3.5
2022-12-02T14:32:56.710Z,3.6
2022-12-02T14:34:06.840Z,3.6
2022-12-02T14:35:16.943Z,3.6
2022-12-02T14:36:27.062Z,3.6
2022-12-02T14:37:37.197Z,3.6
2022-12-02T14:38:47.316Z,3.6
2022-12-02T14:39:57.425Z,3.6
2022-12-02T14:41:07.547Z,3.6
2022-12-02T14:42:17.651Z,3.6
2022-12-02T14:43:27.776Z,3.7
2022-12-02T14:44:37.896Z,3.7
2022-12-02T14:45:48.020Z,3.6
2022-12-02T14:46:57.157Z,3.7
2022-12-02T14:49:17.392Z,3.6
2022-12-02T14:50:27.504Z,3.7
2022-12-02T14:51:37.628Z,3.7
2022-12-02T14:52:47.736Z,3.6
2022-12-02T14:53:57.865Z,3.7
2022-12-02T14:55:07.970Z,3.7
2022-12-02T14:56:18.094Z,3.7
2022-12-02T14:57:28.205Z,3.7
2022-12-02T14:58:38.331Z,3.6
2022-12-02T14:59:48.439Z,3.6
2022-12-02T15:00:58.565Z,3.7
2022-12-02T15:02:07.696Z,3.6
2022-12-02T15:03:17.823Z,3.7
2022-12-02T15:04:27.946Z,3.7
2022-12-02T15:05:38.050Z,3.6
2022-12-02T15:06:48.175Z,3.7
2022-12-02T15:07:58.282Z,3.7
2022-12-02T15:09:08.406Z,3.7
2022-12-02T15:10:18.529Z,3.7
2022-12-02T15:11:28.655Z,3.6
2022-12-02T15:12:38.756Z,3.6
2022-12-02T15:13:48.888Z,3.7
2022-12-02T15:14:58.997Z,3.7
2022-12-02T15:16:09.117Z,3.7
2022-12-02T15:17:18.245Z,3.7
2022-12-02T15:19:38.479Z,3.7
2022-12-02T15:20:48.598Z,3.7
2022-12-02T15:21:58.720Z,3.6
2022-12-02T15:23:08.841Z,3.6
2022-12-02T15:24:18.960Z,3.6
2022-12-02T15:25:29.084Z,3.6
2022-12-02T15:26:39.201Z,3.6
2022-12-02T15:27:49.322Z,3.6
2022-12-02T15:28:59.441Z,3.6
2022-12-02T15:30:09.555Z,3.6
2022-12-02T15:31:19.660Z,3.6
2022-12-02T15:32:29.910Z,3.7
2022-12-02T15:33:40.021Z,3.7
2022-12-02T15:34:50.136Z,3.8
2022-12-02T15:36:00.258Z,3.8
2022-12-02T15:37:10.382Z,3.7
2022-12-02T15:38:20.501Z,3.7
2022-12-02T15:39:30.611Z,3.7
2022-12-02T15:40:40.740Z,3.7
2022-12-02T15:41:50.860Z,3.7
2022-12-02T15:43:00.969Z,3.7
2022-12-02T15:44:11.088Z,3.7
2022-12-02T15:45:21.213Z,3.6
2022-12-02T15:46:31.317Z,3.6
2022-12-02T15:47:40.454Z,3.6
2022-12-02T15:50:00.698Z,3.6
2022-12-02T15:51:10.823Z,3.6
2022-12-02T15:52:20.930Z,3.6
2022-12-02T15:53:31.056Z,3.6
2022-12-02T15:54:41.177Z,3.6
2022-12-02T15:55:51.282Z,3.6
2022-12-02T15:57:01.406Z,3.6
2022-12-02T15:59:21.632Z,3.5
2022-12-02T16:00:31.753Z,3.5
2022-12-02T16:02:51.997Z,3.6
2022-12-02T16:04:01.134Z,3.5
2022-12-02T16:05:10.265Z,3.6
2022-12-02T16:06:20.397Z,3.6
2022-12-02T16:07:30.519Z,3.6
2022-12-02T16:08:40.623Z,3.5
2022-12-02T16:09:50.740Z,3.5
2022-12-02T16:11:00.868Z,3.5
2022-12-02T16:12:10.979Z,3.5
2022-12-02T16:13:21.101Z,3.5
2022-12-02T16:14:31.223Z,3.5
2022-12-02T16:15:41.328Z,3.5
2022-12-02T16:16:50.478Z,3.5
2022-12-02T16:17:59.617Z,3.5
2022-12-02T16:19:09.725Z,3.5
2022-12-02T16:20:19.860Z,3.6
2022-12-02T16:21:29.979Z,3.6
2022-12-02T16:22:40.093Z,3.5
2022-12-02T16:23:50.214Z,3.5
2022-12-02T16:25:00.318Z,3.6
2022-12-02T16:26:10.434Z,3.5
2022-12-02T16:27:20.556Z,3.6
2022-12-02T16:28:30.679Z,3.6
2022-12-02T16:29:40.800Z,3.6
2022-12-02T16:30:50.922Z,3.6
2022-12-02T16:32:01.034Z,3.5
2022-12-02T16:33:10.166Z,3.5
2022-12-02T16:34:20.286Z,3.6
2022-12-02T16:35:30.404Z,3.6
2022-12-02T16:36:40.529Z,3.5
2022-12-02T16:37:50.636Z,3.5
2022-12-02T16:39:00.760Z,3.5
2022-12-02T16:40:10.883Z,3.5
2022-12-02T16:41:21.145Z,3.5
2022-12-02T16:42:30.269Z,3.5
2022-12-02T16:43:40.389Z,3.5